Time;durP1;ratioP1;P1;durP2;ratioP2;P2;SDS_P1;SDS_P2;PMS_P1;PMS_P2;Temp;Humidity;BMP_temperature;BMP_pressure;BME280_temperature;BME280_humidity;BME280_pressure;Samples;Min_cycle;Max_cycle;Signal;HPM_P1;HPM_P2
2023/11/13 00:04:08;;;;;;;9.53;6.50;;;;;7.60;100142.00;;;;10320981;28;20227;-70
2023/11/13 00:09:09;;;;;;;10.30;6.77;;;;;7.60;100145.00;;;;10335510;28;20224;-70
2023/11/13 00:14:11;;;;;;;13.60;7.17;;;;;7.60;100137.00;;;;10313087;28;20243;-71
2023/11/13 00:19:12;;;;;;;9.10;7.00;;;;;7.60;100137.00;;;;10315484;28;20839;-70
2023/11/13 00:24:13;;;;;;;8.27;6.63;;;;;7.70;100136.00;;;;10314309;28;20218;-70
2023/11/13 00:29:16;;;;;;;9.70;7.67;;;;;7.70;100128.00;;;;10315662;28;20255;-71
2023/11/13 00:34:17;;;;;;;11.90;7.73;;;;;7.70;100123.00;;;;10312311;28;20224;-71
2023/11/13 00:39:19;;;;;;;9.67;6.60;;;;;7.70;100116.00;;;;10310728;28;20231;-71
2023/11/13 00:44:21;;;;;;;12.83;7.30;;;;;7.70;100112.00;;;;10325633;28;20256;-70
2023/11/13 00:49:23;;;;;;;11.00;7.93;;;;;7.70;100107.00;;;;10313615;28;20310;-70
2023/11/13 00:54:24;;;;;;;11.53;7.67;;;;;7.70;100102.00;;;;10317839;28;20246;-75
2023/11/13 00:59:25;;;;;;;13.00;8.63;;;;;7.80;100088.00;;;;10314759;28;20219;-75
2023/11/13 01:04:26;;;;;;;10.83;8.07;;;;;7.80;100080.00;;;;10321219;28;20258;-75
2023/11/13 01:09:28;;;;;;;11.37;7.80;;;;;7.80;100077.00;;;;10310256;28;20228;-75
2023/11/13 01:14:29;;;;;;;14.00;7.87;;;;;7.90;100090.00;;;;10312311;28;20311;-75
2023/11/13 01:19:32;;;;;;;15.27;8.33;;;;;7.90;100079.00;;;;10324702;28;20219;-75
2023/11/13 01:24:33;;;;;;;13.30;8.43;;;;;7.90;100057.00;;;;10324930;28;20286;-75
2023/11/13 01:29:34;;;;;;;11.17;8.33;;;;;8.00;100059.00;;;;10315395;28;20299;-76
2023/11/13 01:34:35;;;;;;;10.03;7.73;;;;;8.00;100067.00;;;;10313410;28;20275;-75
2023/11/13 01:39:37;;;;;;;10.87;7.60;;;;;8.10;100078.00;;;;10325676;28;20226;-75
2023/11/13 01:44:38;;;;;;;13.47;8.63;;;;;8.10;100083.00;;;;10320895;28;20366;-75
2023/11/13 01:49:41;;;;;;;11.67;6.73;;;;;8.20;100088.00;;;;10316381;28;20315;-75
2023/11/13 01:54:42;;;;;;;12.63;8.13;;;;;8.30;100087.00;;;;10314147;28;20238;-75
2023/11/13 01:59:44;;;;;;;12.37;8.40;;;;;8.40;100085.00;;;;10320252;28;20678;-75
2023/11/13 02:04:46;;;;;;;16.70;9.33;;;;;8.40;100089.00;;;;10322717;28;20942;-72
2023/11/13 02:09:49;;;;;;;17.83;10.77;;;;;8.50;100080.00;;;;10317734;28;20255;-72
2023/11/13 02:14:50;;;;;;;18.83;11.37;;;;;8.70;100077.00;;;;10310276;28;20228;-72
2023/11/13 02:19:52;;;;;;;18.27;11.50;;;;;8.80;100078.00;;;;10316080;28;20227;-71
2023/11/13 02:24:53;;;;;;;22.97;11.37;;;;;8.90;100073.00;;;;10298645;28;20227;-72
2023/11/13 02:29:54;;;;;;;18.57;12.13;;;;;9.00;100090.00;;;;10313286;28;20227;-72
2023/11/13 02:34:56;;;;;;;21.03;12.37;;;;;9.10;100089.00;;;;10318474;28;20234;-71
2023/11/13 02:39:57;;;;;;;28.80;12.87;;;;;9.20;100089.00;;;;10320574;28;20270;-71
2023/11/13 02:44:58;;;;;;;32.27;15.43;;;;;9.30;100083.00;;;;10318367;28;20230;-72
2023/11/13 02:50:00;;;;;;;35.13;13.23;;;;;9.50;100076.00;;;;10313899;28;20314;-72
2023/11/13 02:55:02;;;;;;;25.60;13.53;;;;;9.60;100055.00;;;;10320406;28;20233;-72
2023/11/13 03:00:06;;;;;;;36.57;13.53;;;;;9.70;100056.00;;;;10315848;28;20220;-71
2023/11/13 03:05:08;;;;;;;32.87;14.37;;;;;9.70;100052.00;;;;10309310;28;20298;-72
2023/11/13 03:10:10;;;;;;;29.63;13.70;;;;;9.80;100036.00;;;;10296551;28;20228;-72
2023/11/13 03:15:11;;;;;;;38.60;14.23;;;;;9.80;100029.00;;;;10315456;28;20722;-71
2023/11/13 03:20:13;;;;;;;33.77;12.90;;;;;9.80;100028.00;;;;10321533;28;20230;-70
2023/11/13 03:25:14;;;;;;;29.37;11.50;;;;;9.80;100018.00;;;;10321807;28;20235;-70
2023/11/13 03:30:15;;;;;;;28.90;10.90;;;;;9.90;99992.00;;;;10316491;28;20247;-70
2023/11/13 03:35:17;;;;;;;31.77;10.97;;;;;10.00;99990.00;;;;10314906;28;20223;-71
2023/11/13 03:40:18;;;;;;;41.43;10.73;;;;;10.00;100002.00;;;;10318224;28;20338;-71
2023/11/13 03:45:19;;;;;;;41.40;11.20;;;;;10.20;100011.00;;;;10313013;28;20289;-72
2023/11/13 03:50:21;;;;;;;32.57;8.93;;;;;10.20;100007.00;;;;10316805;28;20235;-71
2023/11/13 03:55:22;;;;;;;39.83;10.07;;;;;10.30;100019.00;;;;10311776;28;20212;-71
2023/11/13 04:00:24;;;;;;;36.70;9.63;;;;;10.30;100020.00;;;;10317208;28;20286;-71
2023/11/13 04:05:25;;;;;;;37.67;8.57;;;;;10.40;100006.00;;;;10315395;28;20751;-70
2023/11/13 04:10:28;;;;;;;32.57;8.47;;;;;10.40;100021.00;;;;10333817;28;20298;-70
2023/11/13 04:15:29;;;;;;;37.70;7.60;;;;;10.40;100016.00;;;;10319002;28;20223;-71
2023/11/13 04:20:30;;;;;;;39.83;7.33;;;;;10.40;100029.00;;;;10338254;28;20262;-71
2023/11/13 04:25:32;;;;;;;34.93;7.50;;;;;10.40;100030.00;;;;10315755;28;20319;-72
2023/11/13 04:30:33;;;;;;;36.53;7.23;;;;;10.40;100028.00;;;;10326964;28;20231;-71
2023/11/13 04:35:34;;;;;;;30.93;6.67;;;;;10.40;100037.00;;;;10327309;28;20315;-71
2023/11/13 04:40:36;;;;;;;28.03;6.00;;;;;10.40;100041.00;;;;10314290;28;20829;-71
2023/11/13 04:45:37;;;;;;;24.80;6.17;;;;;10.40;100044.00;;;;10312596;28;20295;-71
2023/11/13 04:50:38;;;;;;;31.37;6.17;;;;;10.40;100045.00;;;;10303706;28;20262;-71
2023/11/13 04:55:39;;;;;;;23.83;6.10;;;;;10.40;100037.00;;;;10300071;28;20315;-71
2023/11/13 05:00:40;;;;;;;37.80;5.50;;;;;10.40;100027.00;;;;10291061;28;20228;-71
2023/11/13 05:05:41;;;;;;;33.27;6.80;;;;;10.40;100026.00;;;;10295319;28;20297;-71
2023/11/13 05:10:43;;;;;;;22.80;4.70;;;;;10.40;100014.00;;;;10323935;28;20252;-71
2023/11/13 05:15:44;;;;;;;32.00;5.13;;;;;10.40;100020.00;;;;10305606;28;20262;-71
2023/11/13 05:20:46;;;;;;;22.73;5.27;;;;;10.40;100008.00;;;;10306732;28;20331;-71
2023/11/13 05:25:47;;;;;;;26.63;6.30;;;;;10.40;99984.00;;;;10311999;28;20322;-71
2023/11/13 05:30:48;;;;;;;25.97;6.93;;;;;10.40;99982.00;;;;10313645;28;20234;-72
2023/11/13 05:35:50;;;;;;;26.67;6.80;;;;;10.40;99969.00;;;;10311418;28;20223;-71
2023/11/13 05:40:51;;;;;;;34.90;7.40;;;;;10.40;99976.00;;;;10312660;28;20318;-71
2023/11/13 05:45:52;;;;;;;24.53;7.23;;;;;10.40;99990.00;;;;10328416;28;20228;-70
2023/11/13 05:50:53;;;;;;;27.23;7.30;;;;;10.40;99972.00;;;;10301125;28;20230;-71
2023/11/13 05:55:54;;;;;;;26.47;6.33;;;;;10.40;99961.00;;;;10313604;28;20314;-70
2023/11/13 06:00:58;;;;;;;20.40;3.93;;;;;10.40;99977.00;;;;10325021;28;20228;-70
2023/11/13 06:06:00;;;;;;;14.37;3.73;;;;;10.30;99962.00;;;;10316789;28;20913;-70
2023/11/13 06:11:02;;;;;;;18.53;3.53;;;;;10.20;99959.00;;;;10307413;28;20311;-70
2023/11/13 06:16:03;;;;;;;16.40;2.80;;;;;10.10;99921.00;;;;10314751;28;20221;-70
2023/11/13 06:21:04;;;;;;;15.90;3.50;;;;;10.00;99918.00;;;;10311297;28;20231;-71
2023/11/13 06:26:07;;;;;;;10.37;2.67;;;;;9.90;99920.00;;;;10311613;28;20302;-70
2023/11/13 06:31:09;;;;;;;11.07;3.03;;;;;9.80;99913.00;;;;10309911;28;20220;-70
2023/11/13 06:36:10;;;;;;;13.10;2.67;;;;;9.80;99946.00;;;;10326522;28;20226;-71
2023/11/13 06:41:11;;;;;;;10.80;3.07;;;;;9.70;99968.00;;;;10313808;28;20273;-71
2023/11/13 06:46:12;;;;;;;13.20;2.40;;;;;9.70;99955.00;;;;10315346;28;20291;-69
2023/11/13 06:51:15;;;;;;;9.73;2.43;;;;;9.70;99916.00;;;;10324559;28;20693;-70
2023/11/13 06:56:16;;;;;;;11.70;2.33;;;;;9.70;99898.00;;;;10313307;28;20315;-70
2023/11/13 07:01:18;;;;;;;12.50;2.87;;;;;9.70;99884.00;;;;10317444;28;20224;-71
2023/11/13 07:06:20;;;;;;;8.27;3.17;;;;;9.80;99873.00;;;;10299856;28;20243;-70
2023/11/13 07:11:22;;;;;;;13.03;3.10;;;;;9.80;99854.00;;;;10305922;28;20301;-72
2023/11/13 07:16:23;;;;;;;16.60;3.43;;;;;9.80;99832.00;;;;10321309;28;20216;-70
2023/11/13 07:21:24;;;;;;;7.80;3.30;;;;;9.90;99821.00;;;;10333291;28;20238;-71
2023/11/13 07:26:26;;;;;;;11.20;2.57;;;;;9.90;99787.00;;;;10318113;28;20642;-70
2023/11/13 07:31:27;;;;;;;12.83;3.43;;;;;9.90;99771.00;;;;10293580;28;20220;-70
2023/11/13 07:36:30;;;;;;;10.03;3.80;;;;;10.00;99773.00;;;;10318326;28;20710;-70
2023/11/13 07:41:33;;;;;;;12.50;3.53;;;;;10.00;99755.00;;;;10311726;28;20235;-71
2023/11/13 07:46:34;;;;;;;12.00;3.23;;;;;10.00;99784.00;;;;10330448;28;20305;-71
2023/11/13 07:51:35;;;;;;;8.83;3.03;;;;;10.10;99738.00;;;;10316197;28;20228;-70
2023/11/13 07:56:36;;;;;;;8.37;2.87;;;;;10.10;99744.00;;;;10314536;28;20694;-71
2023/11/13 08:01:38;;;;;;;7.30;2.60;;;;;10.20;99718.00;;;;10312410;28;20250;-72
2023/11/13 08:06:39;;;;;;;7.17;2.47;;;;;10.30;99704.00;;;;10315916;28;20323;-71
2023/11/13 08:11:40;;;;;;;6.70;2.40;;;;;10.30;99690.00;;;;10319489;28;20227;-72
2023/11/13 08:16:42;;;;;;;8.03;3.00;;;;;10.40;99689.00;;;;10313715;28;20223;-72
2023/11/13 08:21:43;;;;;;;8.73;3.00;;;;;10.40;99672.00;;;;10322630;28;20220;-72
2023/11/13 08:26:44;;;;;;;6.93;2.47;;;;;10.50;99651.00;;;;10318913;28;20282;-72
2023/11/13 08:31:45;;;;;;;10.77;3.53;;;;;10.80;99565.00;;;;10320964;28;20239;-72
2023/11/13 08:36:47;;;;;;;13.10;3.17;;;;;10.90;99617.00;;;;10314418;28;20314;-72
2023/11/13 08:41:48;;;;;;;11.13;2.97;;;;;11.00;99613.00;;;;10301280;28;20251;-72
2023/11/13 08:46:49;;;;;;;9.87;3.03;;;;;11.20;99607.00;;;;10310475;28;20231;-72
2023/11/13 08:51:50;;;;;;;19.87;4.27;;;;;11.40;99623.00;;;;10306713;28;20224;-72
2023/11/13 08:56:52;;;;;;;17.73;4.00;;;;;11.50;99617.00;;;;10310382;28;20232;-72
2023/11/13 09:01:53;;;;;;;19.13;4.83;;;;;11.70;99600.00;;;;10311365;28;21126;-73
2023/11/13 09:06:54;;;;;;;17.70;4.35;;;;;11.80;99580.00;;;;10297789;28;20582;-71
2023/11/13 09:11:56;;;;;;;14.63;4.50;;;;;12.00;99562.00;;;;10307640;28;20710;-72
2023/11/13 09:16:57;;;;;;;21.25;5.25;;;;;12.30;99574.00;;;;10310694;28;20984;-72
2023/11/13 09:21:59;;;;;;;19.27;5.55;;;;;12.30;99579.00;;;;10300329;28;20310;-72
2023/11/13 09:27:01;;;;;;;27.15;4.80;;;;;12.50;99555.00;;;;10314758;28;20231;-71
2023/11/13 09:32:02;;;;;;;24.27;5.63;;;;;12.80;99533.00;;;;10319682;28;20312;-72
2023/11/13 09:37:08;;;;;;;21.42;5.20;;;;;13.10;99555.00;;;;10311115;28;20216;-71
2023/11/13 09:42:18;;;;;;;27.75;6.03;;;;;13.40;99545.00;;;;10322098;28;20230;-73
2023/11/13 09:47:21;;;;;;;20.58;5.40;;;;;13.60;99551.00;;;;10308066;28;20239;-73
2023/11/13 09:52:26;;;;;;;18.70;5.00;;;;;13.80;99550.00;;;;10308875;28;20547;-73
2023/11/13 09:57:27;;;;;;;21.88;5.10;;;;;13.80;99545.00;;;;10319190;28;20609;-70
2023/11/13 10:02:29;;;;;;;25.77;6.22;;;;;13.90;99533.00;;;;10289851;28;20910;-71
2023/11/13 10:07:30;;;;;;;21.25;5.38;;;;;13.90;99503.00;;;;10312052;28;20298;-73
2023/11/13 10:12:31;;;;;;;19.90;5.10;;;;;14.10;99511.00;;;;10315484;28;20223;-72
2023/11/13 10:17:42;;;;;;;18.02;5.78;;;;;14.00;99514.00;;;;10305053;28;20931;-72
2023/11/13 10:22:46;;;;;;;22.58;5.35;;;;;14.00;99509.00;;;;10337003;28;20778;-72
2023/11/13 10:28:01;;;;;;;16.27;4.45;;;;;14.00;99506.00;;;;10320999;28;20736;-70
2023/11/13 10:33:15;;;;;;;16.95;4.43;;;;;14.00;99494.00;;;;10322651;28;20219;-70
2023/11/13 10:38:24;;;;;;;14.43;4.82;;;;;14.10;99481.00;;;;10314523;28;20215;-71
2023/11/13 10:43:29;;;;;;;14.73;4.55;;;;;14.00;99475.00;;;;10320354;28;20466;-71
2023/11/13 10:48:45;;;;;;;15.70;4.78;;;;;13.80;99468.00;;;;10327474;28;20220;-71
2023/11/13 10:53:47;;;;;;;11.90;3.97;;;;;13.80;99441.00;;;;10326805;28;20230;-71
2023/11/13 10:58:49;;;;;;;17.08;4.60;;;;;13.80;99442.00;;;;10330784;28;20223;-72
2023/11/13 11:03:52;;;;;;;16.70;4.43;;;;;14.00;99438.00;;;;10333700;28;20331;-71
2023/11/13 11:08:56;;;;;;;14.73;4.65;;;;;14.20;99424.00;;;;10318625;28;20311;-72
2023/11/13 11:14:03;;;;;;;12.57;3.78;;;;;14.30;99419.00;;;;10317863;28;20208;-72
2023/11/13 11:19:20;;;;;;;12.20;3.85;;;;;14.30;99398.00;;;;10315001;28;20228;-72
2023/11/13 11:24:27;;;;;;;15.32;4.43;;;;;14.40;99371.00;;;;10324760;28;20228;-73
2023/11/13 11:29:36;;;;;;;15.07;4.20;;;;;14.60;99364.00;;;;10326139;28;20299;-72
2023/11/13 11:34:40;;;;;;;10.05;3.10;;;;;14.70;99377.00;;;;10315568;28;20285;-72
2023/11/13 11:39:51;;;;;;;10.32;4.05;;;;;14.70;99361.00;;;;10315205;28;20743;-71
2023/11/13 11:45:06;;;;;;;9.68;3.75;;;;;14.70;99365.00;;;;10322508;28;20314;-71
2023/11/13 11:50:12;;;;;;;7.90;2.88;;;;;14.70;99356.00;;;;10313274;28;20310;-71
2023/11/13 11:55:13;;;;;;;10.65;3.88;;;;;14.80;99356.00;;;;10316319;28;20223;-72
2023/11/13 12:00:20;;;;;;;12.55;3.28;;;;;14.70;99365.00;;;;10309252;28;20231;-71
2023/11/13 12:05:22;;;;;;;9.55;3.10;;;;;14.70;99350.00;;;;10309218;28;20239;-72
2023/11/13 12:10:23;;;;;;;11.60;3.80;;;;;14.60;99371.00;;;;10322062;28;20215;-71
2023/11/13 12:15:26;;;;;;;7.75;2.50;;;;;14.80;99345.00;;;;10312386;28;20220;-71
2023/11/13 12:20:29;;;;;;;9.25;2.95;;;;;14.80;99340.00;;;;10310894;28;20223;-72
2023/11/13 12:25:31;;;;;;;11.02;7.38;;;;;14.70;99332.00;;;;10328818;28;20310;-72
2023/11/13 12:30:32;;;;;;;7.15;2.40;;;;;14.80;99325.00;;;;10319520;28;20308;-72
2023/11/13 12:35:35;;;;;;;5.15;2.30;;;;;15.00;99294.00;;;;10331399;28;20218;-71
2023/11/13 12:40:36;;;;;;;5.82;2.25;;;;;15.30;99258.00;;;;10306042;28;20303;-72
2023/11/13 12:45:38;;;;;;;4.13;2.13;;;;;15.60;99275.00;;;;10309461;28;20223;-72
2023/11/13 12:50:39;;;;;;;4.57;1.70;;;;;15.70;99278.00;;;;10332358;28;20314;-72
2023/11/13 12:55:43;;;;;;;7.90;1.80;;;;;15.70;99278.00;;;;10318693;28;20226;-71
2023/11/13 13:00:45;;;;;;;4.97;1.58;;;;;15.60;99261.00;;;;10292735;28;20231;-72
2023/11/13 13:05:46;;;;;;;2.13;1.27;;;;;15.60;99249.00;;;;10294305;28;20265;-72
2023/11/13 13:10:51;;;;;;;5.70;1.40;;;;;15.60;99263.00;;;;10322765;28;20227;-72
2023/11/13 13:15:52;;;;;;;4.70;3.00;;;;;15.20;99275.00;;;;10310669;28;20300;-71
2023/11/13 13:20:54;;;;;;;5.15;2.95;;;;;14.80;99283.00;;;;10294413;28;20314;-72
2023/11/13 13:25:55;;;;;;;4.28;2.88;;;;;14.70;99284.00;;;;10306613;28;20682;-71
2023/11/13 13:30:56;;;;;;;3.50;2.13;;;;;14.50;99305.00;;;;10306790;28;20253;-71
2023/11/13 13:35:58;;;;;;;4.25;2.15;;;;;14.30;99314.00;;;;10308910;28;20879;-71
2023/11/13 13:41:01;;;;;;;3.55;2.00;;;;;14.20;99314.00;;;;10313245;28;20295;-71
2023/11/13 13:46:03;;;;;;;4.28;1.27;;;;;14.20;99328.00;;;;10331036;28;20259;-73
2023/11/13 13:51:05;;;;;;;12.68;7.18;;;;;14.50;99315.00;;;;10331057;28;20223;-72
2023/11/13 13:56:11;;;;;;;7.43;4.95;;;;;14.30;99312.00;;;;10307356;28;20306;-73
2023/11/13 14:01:13;;;;;;;9.20;3.15;;;;;14.20;99325.00;;;;10323934;28;20317;-72
2023/11/13 14:06:15;;;;;;;6.65;2.75;;;;;14.30;99325.00;;;;10325054;28;20681;-71
2023/11/13 14:11:19;;;;;;;8.80;2.17;;;;;14.50;99343.00;;;;10316922;28;20227;-72
2023/11/13 14:16:20;;;;;;;7.95;1.52;;;;;14.50;99334.00;;;;10321063;28;20263;-72
2023/11/13 14:21:23;;;;;;;4.00;1.52;;;;;14.80;99335.00;;;;10320159;28;20251;-72
2023/11/13 14:26:24;;;;;;;11.57;6.35;;;;;14.50;99338.00;;;;10315064;28;20224;-72
2023/11/13 14:31:25;;;;;;;7.13;2.15;;;;;14.10;99345.00;;;;10319007;28;20311;-72
2023/11/13 14:36:27;;;;;;;7.28;2.40;;;;;14.00;99357.00;;;;10310971;28;20219;-72
2023/11/13 14:41:28;;;;;;;9.65;2.65;;;;;13.80;99359.00;;;;10311620;28;20745;-72
2023/11/13 14:46:30;;;;;;;8.15;2.42;;;;;13.90;99346.00;;;;10315497;28;20220;-72
2023/11/13 14:51:34;;;;;;;10.80;2.40;;;;;13.80;99363.00;;;;10325757;28;20628;-72
2023/11/13 14:56:35;;;;;;;12.82;2.95;;;;;13.70;99353.00;;;;10315263;28;20224;-72
2023/11/13 15:01:36;;;;;;;19.15;3.20;;;;;13.70;99348.00;;;;10317546;28;20847;-72
2023/11/13 15:06:38;;;;;;;17.83;3.33;;;;;13.90;99370.00;;;;10311862;28;20263;-72
2023/11/13 15:11:40;;;;;;;15.88;3.63;;;;;13.80;99382.00;;;;10315305;28;20971;-73
2023/11/13 15:16:41;;;;;;;23.40;4.10;;;;;13.40;99390.00;;;;10297317;28;20628;-73
2023/11/13 15:21:45;;;;;;;16.75;4.53;;;;;13.20;99393.00;;;;10305246;28;20284;-72
2023/11/13 15:26:48;;;;;;;24.42;4.55;;;;;13.00;99398.00;;;;10297833;28;20322;-73
2023/11/13 15:31:49;;;;;;;16.67;5.07;;;;;12.80;99407.00;;;;10300513;28;20877;-73
2023/11/13 15:36:50;;;;;;;24.50;5.13;;;;;12.60;99419.00;;;;10332633;28;20246;-73
2023/11/13 15:41:51;;;;;;;18.60;4.43;;;;;12.50;99415.00;;;;10309331;28;20235;-74
2023/11/13 15:46:52;;;;;;;16.98;4.15;;;;;12.50;99433.00;;;;10340573;28;20227;-73
2023/11/13 15:51:54;;;;;;;28.25;5.85;;;;;12.50;99448.00;;;;10297527;28;20227;-73
2023/11/13 15:56:55;;;;;;;26.95;5.13;;;;;12.30;99462.00;;;;10322100;28;20626;-74
2023/11/13 16:01:56;;;;;;;21.77;4.38;;;;;12.20;99467.00;;;;10314024;28;20783;-73
2023/11/13 16:07:06;;;;;;;23.02;4.85;;;;;12.10;99488.00;;;;10296142;28;20400;-73
2023/11/13 16:12:08;;;;;;;21.77;4.00;;;;;12.00;99502.00;;;;10311368;28;20303;-74
2023/11/13 16:17:10;;;;;;;23.50;4.82;;;;;11.90;99501.00;;;;10338085;28;20615;-74
2023/11/13 16:22:11;;;;;;;31.27;7.53;;;;;11.90;99509.00;;;;10310232;28;20308;-73
2023/11/13 16:27:12;;;;;;;27.02;5.50;;;;;11.90;99525.00;;;;10311893;28;20227;-73
2023/11/13 16:32:13;;;;;;;27.25;5.68;;;;;11.90;99537.00;;;;10309688;28;20295;-73
2023/11/13 16:37:14;;;;;;;33.90;5.53;;;;;11.80;99551.00;;;;10314817;28;20322;-73
2023/11/13 16:42:16;;;;;;;26.52;5.63;;;;;11.70;99560.00;;;;10314316;28;20255;-73
2023/11/13 16:47:17;;;;;;;23.63;5.47;;;;;11.70;99573.00;;;;10312783;28;20227;-73
2023/11/13 16:52:18;;;;;;;29.55;5.55;;;;;11.70;99596.00;;;;10334549;28;20226;-73
2023/11/13 16:57:20;;;;;;;32.67;7.63;;;;;11.80;99590.00;;;;10314850;28;20223;-74
2023/11/13 17:02:21;;;;;;;27.13;5.97;;;;;11.80;99604.00;;;;10315749;28;20885;-73
2023/11/13 17:07:23;;;;;;;25.30;5.50;;;;;11.70;99607.00;;;;10309288;28;20551;-74
2023/11/13 17:12:24;;;;;;;30.13;6.38;;;;;11.70;99616.00;;;;10312859;28;20242;-74
2023/11/13 17:17:26;;;;;;;31.73;6.33;;;;;11.60;99630.00;;;;10319791;28;20704;-76
2023/11/13 17:22:29;;;;;;;22.80;6.50;;;;;11.50;99636.00;;;;10310741;28;20823;-76
2023/11/13 17:27:30;;;;;;;37.42;8.02;;;;;11.60;99650.00;;;;10306478;28;20251;-76
2023/11/13 17:32:31;;;;;;;19.33;5.68;;;;;11.60;99655.00;;;;10316971;28;20231;-77
2023/11/13 17:37:33;;;;;;;36.85;7.47;;;;;11.60;99654.00;;;;10315032;28;20223;-76
2023/11/13 17:42:36;;;;;;;23.70;6.72;;;;;11.50;99654.00;;;;10297211;28;20589;-76
2023/11/13 17:47:38;;;;;;;35.05;6.78;;;;;11.50;99643.00;;;;10310252;28;20248;-76
2023/11/13 17:52:39;;;;;;;32.55;7.53;;;;;11.40;99662.00;;;;10307915;28;20239;-77
2023/11/13 17:57:41;;;;;;;23.70;6.07;;;;;11.30;99670.00;;;;10307906;28;20224;-76
2023/11/13 18:02:44;;;;;;;30.90;5.60;;;;;11.30;99664.00;;;;10304086;28;20624;-76
2023/11/13 18:07:45;;;;;;;19.87;4.53;;;;;11.10;99658.00;;;;10323995;28;20289;-77
2023/11/13 18:12:47;;;;;;;26.70;5.03;;;;;11.10;99659.00;;;;10307038;28;20230;-76
2023/11/13 18:17:48;;;;;;;17.87;4.63;;;;;11.10;99670.00;;;;10307757;28;20227;-76
2023/11/13 18:22:49;;;;;;;29.93;5.33;;;;;11.10;99667.00;;;;10310871;28;20239;-76
2023/11/13 18:27:50;;;;;;;25.10;4.53;;;;;11.00;99661.00;;;;10320212;28;20304;-76
2023/11/13 18:32:52;;;;;;;20.63;5.50;;;;;11.00;99675.00;;;;10311728;28;20302;-77
2023/11/13 18:37:54;;;;;;;35.43;5.20;;;;;11.00;99679.00;;;;10305601;28;20274;-77
2023/11/13 18:42:56;;;;;;;25.97;6.53;;;;;11.00;99684.00;;;;10313842;28;20224;-77
2023/11/13 18:47:57;;;;;;;21.67;3.80;;;;;11.00;99694.00;;;;10312877;28;20279;-76
2023/11/13 18:53:00;;;;;;;22.07;4.90;;;;;11.00;99709.00;;;;10312308;28;20318;-77
2023/11/13 18:58:01;;;;;;;31.17;5.47;;;;;10.90;99718.00;;;;10307627;28;20794;-77
2023/11/13 19:03:04;;;;;;;30.83;6.07;;;;;10.90;99729.00;;;;10318326;28;20566;-77
2023/11/13 19:08:05;;;;;;;26.87;5.90;;;;;10.90;99723.00;;;;10330073;28;20263;-75
2023/11/13 19:13:06;;;;;;;21.70;5.30;;;;;10.90;99722.00;;;;10337021;28;20306;-75
2023/11/13 19:18:07;;;;;;;40.67;7.30;;;;;10.90;99724.00;;;;10328997;28;20216;-76
2023/11/13 19:23:09;;;;;;;30.83;5.83;;;;;10.90;99738.00;;;;10315234;28;20228;-76
2023/11/13 19:28:10;;;;;;;24.37;5.37;;;;;10.90;99726.00;;;;10332841;28;20250;-76
2023/11/13 19:33:11;;;;;;;26.03;5.23;;;;;10.90;99739.00;;;;10311911;28;20319;-75
2023/11/13 19:38:12;;;;;;;34.40;6.63;;;;;10.90;99745.00;;;;10310985;28;20246;-72
2023/11/13 19:43:14;;;;;;;24.33;5.83;;;;;11.00;99738.00;;;;10322624;28;20243;-73
2023/11/13 19:48:16;;;;;;;22.33;5.77;;;;;11.00;99748.00;;;;10315181;28;20230;-73
2023/11/13 19:53:17;;;;;;;28.83;6.30;;;;;10.90;99768.00;;;;10306893;28;20220;-73
2023/11/13 19:58:18;;;;;;;42.13;6.60;;;;;10.90;99767.00;;;;10308804;28;20224;-72
2023/11/13 20:03:20;;;;;;;27.33;5.93;;;;;11.00;99764.00;;;;10314016;28;20697;-72
2023/11/13 20:08:22;;;;;;;30.13;5.30;;;;;11.00;99783.00;;;;10313332;28;20269;-72
2023/11/13 20:13:24;;;;;;;28.47;5.00;;;;;11.00;99784.00;;;;10312593;28;20227;-73
2023/11/13 20:18:25;;;;;;;30.53;5.20;;;;;10.90;99791.00;;;;10320367;28;20246;-73
2023/11/13 20:23:37;;;;;;;25.10;4.93;;;;;10.90;99794.00;;;;10308728;28;20220;-73
2023/11/13 20:28:39;;;;;;;29.53;5.50;;;;;10.80;99807.00;;;;10317604;28;20235;-72
2023/11/13 20:33:40;;;;;;;24.00;5.93;;;;;10.80;99800.00;;;;10331414;28;20722;-73
2023/11/13 20:38:42;;;;;;;27.03;5.70;;;;;10.90;99810.00;;;;10319429;28;20239;-72
2023/11/13 20:43:43;;;;;;;25.17;5.33;;;;;10.80;99813.00;;;;10310817;28;20259;-72
2023/11/13 20:48:44;;;;;;;24.33;4.97;;;;;10.80;99821.00;;;;10309324;28;20235;-72
2023/11/13 20:53:45;;;;;;;35.07;5.73;;;;;10.70;99828.00;;;;10306064;28;20228;-72
2023/11/13 20:58:48;;;;;;;32.20;5.17;;;;;10.80;99841.00;;;;10318887;28;20227;-72
2023/11/13 21:03:49;;;;;;;28.03;5.43;;;;;10.70;99848.00;;;;10310426;28;20916;-72
2023/11/13 21:08:50;;;;;;;22.23;5.00;;;;;10.60;99845.00;;;;10310513;28;20229;-72
2023/11/13 21:13:52;;;;;;;28.60;5.03;;;;;10.60;99858.00;;;;10309811;28;20669;-72
2023/11/13 21:18:53;;;;;;;35.13;6.53;;;;;10.60;99854.00;;;;10330161;28;20858;-72
2023/11/13 21:23:54;;;;;;;19.70;4.10;;;;;10.50;99852.00;;;;10306119;28;20235;-72
2023/11/13 21:28:55;;;;;;;28.07;6.07;;;;;10.50;99859.00;;;;10312297;28;20242;-72
2023/11/13 21:33:58;;;;;;;36.93;5.17;;;;;10.50;99856.00;;;;10295770;28;20231;-72
2023/11/13 21:38:59;;;;;;;30.63;5.30;;;;;10.50;99842.00;;;;10311985;28;20275;-72
2023/11/13 21:44:01;;;;;;;18.67;4.17;;;;;10.50;99841.00;;;;10305538;28;20298;-72
2023/11/13 21:49:03;;;;;;;27.83;4.60;;;;;10.50;99856.00;;;;10308113;28;20304;-72
2023/11/13 21:54:06;;;;;;;27.00;4.70;;;;;10.60;99871.00;;;;10312482;28;20323;-77
2023/11/13 21:59:07;;;;;;;28.10;5.17;;;;;10.60;99867.00;;;;10309453;28;20215;-76
2023/11/13 22:04:08;;;;;;;16.97;4.80;;;;;10.70;99870.00;;;;10308173;28;20226;-76
2023/11/13 22:09:09;;;;;;;30.23;5.20;;;;;10.80;99870.00;;;;10315087;28;20246;-76
2023/11/13 22:14:10;;;;;;;28.73;4.80;;;;;10.80;99859.00;;;;10313378;28;20223;-75
2023/11/13 22:19:12;;;;;;;31.03;5.33;;;;;10.80;99865.00;;;;10319823;28;20299;-76
2023/11/13 22:24:15;;;;;;;25.50;5.27;;;;;10.80;99877.00;;;;10315316;28;20227;-76
2023/11/13 22:29:16;;;;;;;20.20;4.63;;;;;10.80;99872.00;;;;10300572;28;20307;-76
2023/11/13 22:34:17;;;;;;;26.47;4.87;;;;;10.80;99879.00;;;;10315325;28;20589;-76
2023/11/13 22:39:18;;;;;;;24.13;4.87;;;;;10.80;99887.00;;;;10320531;28;20223;-76
2023/11/13 22:44:19;;;;;;;31.37;5.87;;;;;10.80;99881.00;;;;10318273;28;20223;-77
2023/11/13 22:49:21;;;;;;;28.43;4.17;;;;;10.70;99884.00;;;;10317708;28;20312;-76
2023/11/13 22:54:22;;;;;;;35.23;5.57;;;;;10.70;99896.00;;;;10317923;28;20259;-76
2023/11/13 22:59:23;;;;;;;27.13;5.43;;;;;10.70;99891.00;;;;10332637;28;20216;-76
2023/11/13 23:04:25;;;;;;;32.07;4.63;;;;;10.70;99892.00;;;;10317169;28;20686;-76
2023/11/13 23:09:28;;;;;;;34.27;5.43;;;;;10.60;99893.00;;;;10316682;28;20597;-76
2023/11/13 23:14:29;;;;;;;22.70;4.50;;;;;10.70;99885.00;;;;10309323;28;20260;-76
2023/11/13 23:19:30;;;;;;;30.13;5.17;;;;;10.70;99894.00;;;;10339669;28;20270;-76
2023/11/13 23:24:31;;;;;;;29.07;5.00;;;;;10.60;99886.00;;;;10319890;28;20224;-77
2023/11/13 23:29:32;;;;;;;27.40;5.13;;;;;10.60;99902.00;;;;10313908;28;20247;-76
2023/11/13 23:34:33;;;;;;;27.20;4.87;;;;;10.60;99907.00;;;;10314486;28;20240;-76
2023/11/13 23:39:35;;;;;;;37.20;5.90;;;;;10.60;99911.00;;;;10322835;28;20726;-76
2023/11/13 23:44:37;;;;;;;23.27;5.10;;;;;10.50;99903.00;;;;10323687;28;20231;-76
2023/11/13 23:49:38;;;;;;;34.80;6.23;;;;;10.60;99904.00;;;;10313939;28;20322;-77
2023/11/13 23:54:39;;;;;;;29.83;4.70;;;;;10.60;99921.00;;;;10326712;28;20228;-75
2023/11/13 23:59:42;;;;;;;22.13;4.93;;;;;10.60;99912.00;;;;10305529;28;20223;-76
